Ana Sayfa
METAR-TAF:

METAR-TAF

Havaalanları :

Sinop Havalimanı

Sinop, Türkiye

Enlem: 42-00-57N, Boylam: 035-03-59E, yükseklik: 7 m

METAR: eksik

Saat: 13:54 (10:54 UTC)

Tahmin

Rapor saat 07:40 UTC de 3 saat ve 14 dakika önce yapıldı.
Ayın 05'si saat 09 UTC'den ayın 05'si saat 18 UTC'ye kadar geçerli Tahmin
Rüzgar doğudan 14 kt
Görüş mesafesi 10 km veya daha fazla
1000 ft yükseklikte az bulutlu
3000 ft yükseklikte parçalı çok bulutlu
8000 ft yükseklikte parçalı çok bulutlu
Geçici
ayın 05'si saat 12 UTC'den ayın 05'si saat 16 UTC'ye kadar
hafif sağanak yağmurlar

TAF: LTCM 050740Z 0509/0518 09014KT 9999 FEW010 BKN030 BKN080 TEMPO 0512/0516 -SHRA

4.000'den fazla havaalanı için hava durumu gözlemleri ve tahminleri (METAR ve TAF raporları).

Kullanılabilir istasyonlar harita üzerinde sarı ve kırmızı noktalarla gösterilir.

İstasyonun adını görmek için fareyi noktanın üzerinde gezdirin.

Sonrasında hava gözlem ve tahminlerini görmek için tıklayın.

Haritayı değiştirmek için: yaklaştırmak için siyah artı işaretli yeşil düğmeye ve uzaklaştırmak için de eksi işaretli düğmeye hızla tıklayın; bitişik haritalar için yeşil okları kullanın.


METAR-TAF: